Aviation Digital Data Service (ADDS)

Output produced by METARs form (2237 UTC 02 October 2022)
found at http://aviationweather.gov/metar/data/
 
METAR text: KSFF 022153Z 29004KT 10SM CLR 25/08 A3002 RMK AO2 SLP156 T02500083
Conditions at: KSFF (SPOKANE/FELTS , WA, US) observed 2153 UTC 02 October 2022
Temperature: 25.0°C (77°F)
Dewpoint: 8.3°C (47°F) [RH = 35%]
Pressure (altimeter): 30.02 inches Hg (1016.7 mb)
[Sea-level pressure: 1015.6 mb]
Winds: from the WNW (290 degrees) at 5 MPH (4 knots; 2.1 m/s)
Visibility: 10 or more miles (16+ km)
Ceiling: at least 12,000 feet AGL
Clouds: sky clear below 12,000 feet AGL
Weather: no significant weather observed at this time

Forecast for: KSFF (SPOKANE/FELTS , WA, US)
Text: KSFF 021720Z 0218/0318 VRB03KT P6SM SKC
Forecast period: 1800 UTC 02 October 2022 to 1800 UTC 03 October 2022
Forecast type: FROM: standard forecast or significant change
Winds: variable direction winds at 3 MPH (3 knots; 1.5 m/s)
Visibility: 6 or more miles (10+ km)
Clouds: clear skies
Weather: no significant weather forecast for this period